Time;durP1;ratioP1;P1;durP2;ratioP2;P2;SDS_P1;SDS_P2;PMS_P1;PMS_P2;Temp;Humidity;BMP_temperature;BMP_pressure;BME280_temperature;BME280_humidity;BME280_pressure;Samples;Min_cycle;Max_cycle;Signal;HPM_P1;HPM_P2
2022/05/04 00:00:15;;;;;;;13.83;9.33;;;;;;;17.55;59.03;100510.63;5022292;28;20531;-66
2022/05/04 00:02:43;;;;;;;16.53;10.07;;;;;;;17.56;59.39;100515.78;5022275;28;20209;-66
2022/05/04 00:05:10;;;;;;;14.87;10.00;;;;;;;17.58;59.59;100515.59;5022411;28;20304;-66
2022/05/04 00:07:38;;;;;;;18.97;9.57;;;;;;;17.48;60.56;100510.56;5023003;28;20328;-67
2022/05/04 00:10:08;;;;;;;11.53;9.50;;;;;;;17.41;60.35;100514.19;5021954;28;20215;-66
2022/05/04 00:12:37;;;;;;;14.67;10.20;;;;;;;17.28;60.66;100520.25;5025723;28;20219;-66
2022/05/04 00:15:05;;;;;;;11.07;9.77;;;;;;;17.29;60.50;100513.88;5022018;28;20676;-66
2022/05/04 00:17:33;;;;;;;16.83;9.50;;;;;;;17.33;59.19;100514.31;5022891;28;20895;-66
2022/05/04 00:20:00;;;;;;;15.63;9.97;;;;;;;17.35;59.58;100507.72;5019213;28;20220;-66
2022/05/04 00:22:28;;;;;;;13.20;9.03;;;;;;;17.37;58.75;100518.28;5020815;28;20217;-66
2022/05/04 00:24:56;;;;;;;11.10;9.23;;;;;;;17.40;58.51;100513.38;5025352;28;20683;-66
2022/05/04 00:27:24;;;;;;;13.27;8.83;;;;;;;17.36;58.12;100511.25;5023725;28;20616;-66
2022/05/04 00:29:53;;;;;;;22.67;9.83;;;;;;;17.37;57.58;100513.75;5018838;28;20221;-66
2022/05/04 00:32:21;;;;;;;11.50;8.63;;;;;;;17.37;57.62;100515.59;5021830;28;20232;-66
2022/05/04 00:34:49;;;;;;;11.23;8.37;;;;;;;17.33;58.49;100509.78;5019531;28;20208;-66
2022/05/04 00:37:19;;;;;;;9.53;8.53;;;;;;;17.34;58.40;100507.91;5023654;28;20512;-66
2022/05/04 00:39:47;;;;;;;12.77;9.50;;;;;;;17.34;58.21;100507.91;5018999;28;20251;-66
2022/05/04 00:42:16;;;;;;;14.63;9.27;;;;;;;17.30;58.47;100505.63;5020768;28;20564;-67
2022/05/04 00:44:50;;;;;;;11.53;8.90;;;;;;;17.28;59.12;100506.84;5021884;28;20205;-66
2022/05/04 00:47:19;;;;;;;14.70;8.97;;;;;;;17.28;58.76;100509.53;5018466;28;20232;-66
2022/05/04 00:49:49;;;;;;;12.73;9.27;;;;;;;17.25;58.52;100509.91;5016102;28;20245;-66
2022/05/04 00:52:19;;;;;;;12.63;9.83;;;;;;;17.26;58.90;100511.56;5023038;28;20213;-66
2022/05/04 00:54:50;;;;;;;12.07;9.00;;;;;;;17.25;58.62;100509.91;5021668;28;20564;-66
2022/05/04 00:58:54;;;;;;;10.13;8.70;;;;;;;17.22;58.18;100512.97;5020779;28;20207;-66
2022/05/04 01:00:09;;;;;;;12.70;9.10;;;;;;;17.18;58.14;100511.69;5021162;28;20212;-66
2022/05/04 01:02:41;;;;;;;12.57;7.93;;;;;;;17.17;57.57;100523.41;5022796;28;20219;-66
2022/05/04 01:05:13;;;;;;;11.90;8.03;;;;;;;17.16;57.46;100527.94;5019094;28;20209;-66
2022/05/04 01:07:43;;;;;;;13.07;7.83;;;;;;;17.11;57.63;100524.19;5023033;28;20685;-66
2022/05/04 01:10:11;;;;;;;10.93;8.67;;;;;;;17.09;57.26;100516.31;5019910;28;20230;-66
2022/05/04 01:12:46;;;;;;;13.30;8.00;;;;;;;17.05;56.96;100519.59;5021414;28;20223;-66
2022/05/04 01:15:14;;;;;;;12.27;8.37;;;;;;;17.02;56.99;100515.44;5022786;28;20232;-66
2022/05/04 01:17:43;;;;;;;8.63;7.43;;;;;;;17.00;56.75;100522.81;5021154;28;20209;-66
2022/05/04 01:20:12;;;;;;;11.43;7.23;;;;;;;16.95;56.55;100525.25;5022314;28;20217;-66
2022/05/04 01:22:41;;;;;;;8.97;7.27;;;;;;;16.93;56.34;100519.22;5018153;28;20244;-66
2022/05/04 01:25:12;;;;;;;13.03;7.57;;;;;;;16.90;56.22;100519.59;5021308;28;20244;-66
2022/05/04 01:27:39;;;;;;;9.93;7.33;;;;;;;16.85;56.14;100517.50;5023821;28;20242;-66
2022/05/04 01:30:08;;;;;;;10.90;7.20;;;;;;;16.81;56.34;100510.84;5021947;28;22054;-66
2022/05/04 01:32:36;;;;;;;8.80;6.50;;;;;;;16.80;56.74;100517.22;5021228;28;20220;-66
2022/05/04 01:35:04;;;;;;;9.13;6.47;;;;;;;16.77;56.46;100514.94;5018762;28;21592;-66
2022/05/04 01:37:32;;;;;;;9.47;6.60;;;;;;;16.78;56.40;100524.63;5015436;28;20205;-66
2022/05/04 01:40:01;;;;;;;8.70;6.27;;;;;;;16.77;55.69;100522.13;5016824;28;20558;-66
2022/05/04 01:42:29;;;;;;;8.77;6.97;;;;;;;16.74;55.74;100522.50;5022051;28;20240;-66
2022/05/04 01:44:56;;;;;;;9.20;6.77;;;;;;;16.73;55.57;100527.00;5021293;28;20667;-66
2022/05/04 01:47:24;;;;;;;8.17;6.30;;;;;;;16.65;55.33;100521.75;5024903;28;20229;-66
2022/05/04 01:49:52;;;;;;;9.57;6.53;;;;;;;16.62;55.41;100522.16;5020804;28;20674;-66
2022/05/04 01:52:20;;;;;;;8.33;5.63;;;;;;;16.59;55.29;100519.81;5021605;28;20236;-66
2022/05/04 01:54:49;;;;;;;14.63;6.43;;;;;;;16.59;55.13;100525.16;5021499;28;20253;-66
2022/05/04 01:57:18;;;;;;;11.90;6.43;;;;;;;16.56;55.13;100534.38;5020406;28;20211;-66
2022/05/04 01:59:47;;;;;;;8.83;6.40;;;;;;;16.52;54.68;100524.25;5020439;28;20244;-66
2022/05/04 02:02:18;;;;;;;8.60;6.27;;;;;;;16.51;55.00;100527.94;5022863;28;20216;-66
2022/05/04 02:04:48;;;;;;;8.30;5.97;;;;;;;16.48;54.55;100522.94;5023816;28;20686;-66
2022/05/04 02:07:16;;;;;;;15.07;6.83;;;;;;;16.47;54.63;100527.47;5020729;28;20235;-66
2022/05/04 02:09:44;;;;;;;9.27;6.37;;;;;;;16.45;54.51;100528.66;5020714;28;20212;-66
2022/05/04 02:12:12;;;;;;;9.67;6.80;;;;;;;16.43;54.26;100525.34;5018142;28;20703;-66
2022/05/04 02:14:41;;;;;;;9.00;7.27;;;;;;;16.42;54.51;100529.03;5022923;28;20212;-66
2022/05/04 02:17:09;;;;;;;9.90;7.07;;;;;;;16.38;54.11;100530.41;5021310;28;20210;-66
2022/05/04 02:19:41;;;;;;;10.07;6.43;;;;;;;16.38;54.49;100530.41;5021002;28;20212;-66
2022/05/04 02:22:13;;;;;;;9.50;5.80;;;;;;;16.34;54.55;100521.09;5019390;28;20251;-66
2022/05/04 02:24:41;;;;;;;9.47;6.17;;;;;;;16.33;54.35;100527.47;5023080;28;20670;-66
2022/05/04 02:27:11;;;;;;;7.57;5.93;;;;;;;16.30;54.46;100526.00;5019186;28;20842;-66
2022/05/04 02:29:38;;;;;;;10.93;6.40;;;;;;;16.31;54.42;100524.16;5022679;28;20216;-66
2022/05/04 02:32:08;;;;;;;8.13;6.07;;;;;;;16.29;54.28;100528.84;5021047;28;20228;-66
2022/05/04 02:37:54;;;;;;;8.87;6.33;;;;;;;16.26;54.51;100524.72;5024181;28;20628;-66
2022/05/04 02:40:12;;;;;;;8.17;6.27;;;;;;;16.22;54.57;100528.75;5018708;28;20205;-66
2022/05/04 02:42:43;;;;;;;9.07;5.97;;;;;;;16.23;54.42;100534.94;5022381;28;20223;-66
2022/05/04 02:45:11;;;;;;;8.03;6.13;;;;;;;16.19;54.38;100529.94;5021499;28;20597;-67
2022/05/04 02:47:45;;;;;;;15.03;8.03;;;;;;;16.18;54.12;100532.81;5023077;28;20232;-66
2022/05/04 02:50:15;;;;;;;10.47;6.70;;;;;;;16.15;54.16;100531.34;5022045;28;20241;-66
2022/05/04 02:52:47;;;;;;;9.33;6.13;;;;;;;16.12;53.89;100529.00;5023071;28;20215;-66
2022/05/04 02:55:15;;;;;;;9.23;5.90;;;;;;;16.08;54.08;100527.72;5022630;28;20209;-66
2022/05/04 02:57:42;;;;;;;10.13;6.60;;;;;;;16.09;54.15;100529.41;5019134;28;20681;-66
2022/05/04 03:00:11;;;;;;;9.20;5.70;;;;;;;16.08;54.25;100529.56;5020838;28;20204;-66
2022/05/04 03:02:38;;;;;;;9.03;6.03;;;;;;;16.04;54.48;100530.94;5023928;28;20208;-65
2022/05/04 03:05:09;;;;;;;8.87;5.90;;;;;;;16.02;54.48;100533.78;5019790;28;20494;-66
2022/05/04 03:07:37;;;;;;;9.60;5.77;;;;;;;16.01;54.36;100529.44;5022141;28;20216;-66
2022/05/04 03:10:06;;;;;;;10.43;6.77;;;;;;;15.99;54.77;100528.81;5018065;28;20748;-66
2022/05/04 03:12:34;;;;;;;10.20;6.33;;;;;;;15.98;54.27;100531.69;5022400;28;20296;-66
2022/05/04 03:15:01;;;;;;;7.37;6.13;;;;;;;15.97;54.69;100528.16;5021032;28;20300;-66
2022/05/04 03:17:30;;;;;;;10.57;5.67;;;;;;;15.96;54.56;100533.69;5022674;28;20673;-66
2022/05/04 03:19:58;;;;;;;10.00;6.20;;;;;;;15.94;54.95;100525.84;5019562;28;20216;-66
2022/05/04 03:22:29;;;;;;;7.73;5.83;;;;;;;15.93;54.75;100532.19;5023448;28;20224;-66
2022/05/04 03:24:57;;;;;;;9.90;5.67;;;;;;;15.93;54.27;100529.53;5021048;28;20205;-66
2022/05/04 03:27:25;;;;;;;9.00;5.97;;;;;;;15.93;54.00;100529.53;5023644;28;20243;-66
2022/05/04 03:29:52;;;;;;;7.40;5.70;;;;;;;15.90;53.91;100529.09;5020590;28;20211;-66
2022/05/04 03:32:23;;;;;;;10.43;6.60;;;;;;;15.87;54.51;100524.91;5022671;28;20208;-66
2022/05/04 03:34:50;;;;;;;8.20;5.83;;;;;;;15.86;54.29;100528.59;5022855;28;20205;-66
2022/05/04 03:37:18;;;;;;;8.70;6.57;;;;;;;15.88;54.34;100531.09;5021797;28;20747;-66
2022/05/04 03:39:48;;;;;;;9.27;6.63;;;;;;;15.89;54.24;100528.25;5024556;28;20220;-66
2022/05/04 03:42:16;;;;;;;8.70;6.17;;;;;;;15.89;54.38;100530.09;5024384;28;20217;-66
2022/05/04 03:44:44;;;;;;;10.27;7.00;;;;;;;15.88;54.16;100526.59;5024998;28;20216;-66
2022/05/04 03:47:12;;;;;;;10.23;6.47;;;;;;;15.89;54.43;100527.41;5021905;28;20216;-66
2022/05/04 03:49:39;;;;;;;9.67;6.27;;;;;;;15.88;54.49;100531.94;5024694;28;20259;-66
2022/05/04 03:52:08;;;;;;;9.77;7.17;;;;;;;15.86;54.89;100527.75;5023555;28;20204;-66
2022/05/04 03:54:36;;;;;;;10.33;7.70;;;;;;;15.86;54.32;100531.28;5025041;28;20205;-66
2022/05/04 03:57:06;;;;;;;10.17;7.33;;;;;;;15.87;54.49;100535.59;5024026;28;20205;-66
2022/05/04 03:59:34;;;;;;;9.33;6.97;;;;;;;15.85;54.77;100532.28;5024459;28;20639;-66
2022/05/04 04:02:02;;;;;;;10.23;8.00;;;;;;;15.83;54.87;100533.50;5021236;28;20473;-66
2022/05/04 04:04:29;;;;;;;11.93;8.50;;;;;;;15.83;55.20;100533.50;5024780;28;20328;-66
2022/05/04 04:06:57;;;;;;;17.07;8.00;;;;;;;15.82;55.40;100538.00;5020901;28;20200;-66
2022/05/04 04:09:25;;;;;;;12.13;7.77;;;;;;;15.79;55.55;100533.00;5021964;28;20245;-66
2022/05/04 04:11:52;;;;;;;13.27;7.70;;;;;;;15.77;55.07;100529.69;5026046;28;20234;-66
2022/05/04 04:14:21;;;;;;;12.37;7.93;;;;;;;15.75;54.97;100539.72;5021850;28;20218;-66
2022/05/04 04:16:49;;;;;;;13.17;7.80;;;;;;;15.76;55.10;100539.53;5023410;28;20215;-66
2022/05/04 04:19:17;;;;;;;10.10;8.00;;;;;;;15.78;54.90;100536.69;5023402;28;20201;-66
2022/05/04 04:21:53;;;;;;;14.87;7.53;;;;;;;15.77;54.74;100538.53;5023166;28;20585;-66
2022/05/04 04:24:22;;;;;;;11.23;7.97;;;;;;;15.72;54.84;100537.41;5024043;28;21534;-66
2022/05/04 04:26:50;;;;;;;11.30;7.87;;;;;;;15.70;54.85;100550.13;5025273;28;20650;-66
2022/05/04 04:29:18;;;;;;;9.17;7.30;;;;;;;15.66;54.99;100551.47;5021873;28;20568;-65
2022/05/04 04:31:47;;;;;;;14.63;8.03;;;;;;;15.68;55.46;100552.13;5026561;28;20572;-66
2022/05/04 04:34:15;;;;;;;12.77;8.83;;;;;;;15.67;55.32;100555.81;5022813;28;20223;-66
2022/05/04 04:36:44;;;;;;;10.33;8.00;;;;;;;15.63;55.57;100550.03;5026974;28;20209;-66
2022/05/04 04:39:12;;;;;;;11.50;8.73;;;;;;;15.64;55.46;100556.19;5020999;28;20209;-64
2022/05/04 04:41:39;;;;;;;12.70;8.47;;;;;;;15.61;55.87;100554.69;5024504;28;20208;-65
2022/05/04 04:44:07;;;;;;;11.73;8.70;;;;;;;15.61;56.08;100564.56;5020870;28;20646;-65
2022/05/04 04:46:34;;;;;;;12.47;8.87;;;;;;;15.60;55.64;100565.56;5022073;28;20208;-65
2022/05/04 04:49:04;;;;;;;12.40;8.67;;;;;;;15.60;56.32;100565.56;5020880;28;20666;-65
2022/05/04 04:51:31;;;;;;;17.87;9.53;;;;;;;15.52;56.58;100569.09;5023749;28;20244;-66
2022/05/04 04:53:59;;;;;;;17.47;9.43;;;;;;;15.53;56.58;100570.78;5025383;28;20371;-66
2022/05/04 04:56:27;;;;;;;13.10;8.63;;;;;;;15.53;56.40;100570.78;5020639;28;20530;-66
2022/05/04 04:58:54;;;;;;;13.00;8.60;;;;;;;15.55;56.72;100574.13;5022895;28;20201;-65
2022/05/04 05:01:22;;;;;;;14.27;8.43;;;;;;;15.56;56.46;100574.97;5022346;28;20331;-65
2022/05/04 05:03:50;;;;;;;13.83;9.20;;;;;;;15.56;56.78;100572.28;5024143;28;20209;-65
2022/05/04 05:06:19;;;;;;;13.37;9.00;;;;;;;15.59;56.85;100574.59;5024910;28;20236;-65
2022/05/04 05:08:48;;;;;;;12.57;9.50;;;;;;;15.56;56.55;100575.81;5022596;28;20704;-65
2022/05/04 05:11:15;;;;;;;16.27;9.27;;;;;;;15.54;56.74;100571.63;5022912;28;20251;-66
2022/05/04 05:16:25;;;;;;;10.73;8.30;;;;;;;15.57;56.65;100566.75;5022774;28;20208;-67
2022/05/04 05:18:53;;;;;;;13.27;9.17;;;;;;;15.60;56.68;100581.59;5023967;28;20201;-66
2022/05/04 05:21:22;;;;;;;12.30;8.93;;;;;;;15.63;56.67;100581.25;5020599;28;20209;-66
2022/05/04 05:23:50;;;;;;;13.83;8.73;;;;;;;15.63;56.54;100581.25;5020276;28;20540;-66
2022/05/04 05:26:18;;;;;;;13.30;8.70;;;;;;;15.62;56.42;100584.94;5023425;28;20201;-66
2022/05/04 05:28:47;;;;;;;11.80;8.00;;;;;;;15.61;56.50;100583.28;5021869;28;20327;-66
2022/05/04 05:31:24;;;;;;;;;;;;;;;;;;;;;
2022/05/04 05:33:52;;;;;;;13.83;8.70;;;;;;;15.60;56.67;100592.28;5023323;28;20688;-66
2022/05/04 05:36:20;;;;;;;12.07;8.43;;;;;;;15.58;56.95;100605.00;5022963;28;20212;-66
2022/05/04 05:38:49;;;;;;;10.70;8.30;;;;;;;15.60;56.83;100597.66;5023434;28;20754;-66
2022/05/04 05:41:17;;;;;;;13.77;8.13;;;;;;;15.59;57.24;100609.34;5027389;28;20208;-66
2022/05/04 05:43:45;;;;;;;10.90;8.20;;;;;;;15.61;57.34;100599.31;5025749;28;20219;-66
2022/05/04 05:46:12;;;;;;;11.23;7.90;;;;;;;15.63;57.07;100608.81;5021050;28;20308;-66
2022/05/04 05:48:40;;;;;;;13.17;8.00;;;;;;;15.62;57.12;100604.47;5020765;28;20723;-66
2022/05/04 05:51:08;;;;;;;11.70;8.40;;;;;;;15.66;57.21;100604.94;5019771;28;20205;-66
2022/05/04 05:53:35;;;;;;;12.43;7.33;;;;;;;15.70;56.94;100606.25;5023652;28;20227;-66
2022/05/04 05:56:05;;;;;;;17.07;8.20;;;;;;;15.73;57.07;100613.94;5020732;28;20650;-66
2022/05/04 05:58:33;;;;;;;10.53;7.80;;;;;;;15.74;56.59;100612.94;5022857;28;20647;-68
2022/05/04 06:01:00;;;;;;;16.03;8.20;;;;;;;15.76;56.48;100614.41;5027094;28;20219;-66
2022/05/04 06:03:29;;;;;;;11.17;8.10;;;;;;;15.75;57.05;100612.72;5026288;28;20217;-66
2022/05/04 06:05:57;;;;;;;12.33;7.73;;;;;;;15.74;57.44;100616.41;5024736;28;20223;-66
2022/05/04 06:08:25;;;;;;;13.33;8.40;;;;;;;15.73;57.62;100613.94;5025751;28;20243;-66
2022/05/04 06:10:52;;;;;;;11.17;8.10;;;;;;;15.74;57.51;100612.94;5027924;28;20216;-67
2022/05/04 06:13:21;;;;;;;14.67;8.03;;;;;;;15.73;57.60;100608.59;5026705;28;20205;-67
2022/05/04 06:15:49;;;;;;;13.10;8.40;;;;;;;15.72;58.00;100617.63;5024322;28;20205;-67
2022/05/04 06:18:18;;;;;;;10.70;8.60;;;;;;;15.70;57.81;100604.44;5017997;28;20585;-68
2022/05/04 06:20:46;;;;;;;15.27;8.67;;;;;;;15.71;57.70;100606.09;5016436;28;20201;-67
2022/05/04 06:23:13;;;;;;;15.73;8.67;;;;;;;15.73;57.77;100608.59;5023258;28;20531;-68
2022/05/04 06:25:52;;;;;;;15.20;8.17;;;;;;;15.76;58.04;100603.72;5021036;28;20251;-67
2022/05/04 06:28:21;;;;;;;12.07;8.17;;;;;;;15.69;59.05;100610.78;5018502;28;20315;-67
2022/05/04 06:36:19;;;;;;;11.83;8.10;;;;;;;15.74;59.39;100615.59;5019586;28;20654;-66
2022/05/04 06:38:47;;;;;;;11.70;8.27;;;;;;;15.79;58.92;100613.22;5014824;28;20209;-66
2022/05/04 06:41:15;;;;;;;14.07;8.93;;;;;;;15.86;58.60;100616.84;5019372;28;20297;-65
2022/05/04 06:43:45;;;;;;;13.80;8.10;;;;;;;15.91;60.01;100613.66;5020294;28;20212;-68
2022/05/04 06:46:13;;;;;;;32.43;9.10;;;;;;;16.05;58.95;100619.03;5018009;28;20239;-64
2022/05/04 06:48:41;;;;;;;15.20;8.10;;;;;;;16.18;58.08;100618.44;5020439;28;20245;-64
2022/05/04 06:51:09;;;;;;;12.43;7.20;;;;;;;16.25;57.47;100624.72;5015560;28;20220;-68
2022/05/04 06:53:37;;;;;;;11.40;8.50;;;;;;;16.27;57.50;100629.91;5018850;28;20216;-66
2022/05/04 06:56:20;;;;;;;13.90;8.87;;;;;;;16.23;57.73;100632.09;5020736;28;20685;-66
2022/05/04 06:58:49;;;;;;;13.90;9.03;;;;;;;16.14;58.18;100625.16;5020585;28;20212;-66
2022/05/04 07:01:17;;;;;;;13.63;8.53;;;;;;;16.11;58.09;100628.16;5016094;28;20232;-66
2022/05/04 07:03:44;;;;;;;15.50;9.00;;;;;;;16.07;58.23;100626.88;5018732;28;20217;-70
2022/05/04 07:06:12;;;;;;;13.30;8.97;;;;;;;16.05;58.50;100628.91;5017346;28;20688;-69
2022/05/04 07:08:41;;;;;;;14.87;8.97;;;;;;;15.98;58.65;100627.97;5019396;28;20680;-70
2022/05/04 07:11:09;;;;;;;12.73;9.20;;;;;;;15.93;58.89;100631.16;5023932;28;20224;-67
2022/05/04 07:13:37;;;;;;;13.13;8.60;;;;;;;15.85;58.41;100627.72;5025483;28;20231;-67
2022/05/04 07:16:08;;;;;;;16.20;9.37;;;;;;;15.93;58.81;100625.81;5029383;28;20208;-68
2022/05/04 07:18:36;;;;;;;13.83;8.63;;;;;;;16.04;58.33;100627.22;5029453;28;20551;-67
2022/05/04 07:21:03;;;;;;;12.73;8.93;;;;;;;16.17;58.17;100630.97;5024939;28;20223;-67
2022/05/04 07:23:31;;;;;;;11.73;9.30;;;;;;;16.30;58.34;100629.50;5029782;28;20211;-68
2022/05/04 07:25:59;;;;;;;16.87;9.43;;;;;;;16.40;57.69;100632.78;5029598;28;20240;-69
2022/05/04 07:28:27;;;;;;;12.50;8.40;;;;;;;16.54;57.56;100634.63;5025264;28;20204;-68
2022/05/04 07:30:55;;;;;;;12.93;9.17;;;;;;;16.64;57.45;100635.22;5025313;28;20311;-69
2022/05/04 07:33:24;;;;;;;12.17;8.90;;;;;;;16.71;57.43;100638.81;5030344;28;20721;-68
2022/05/04 07:35:55;;;;;;;15.57;9.20;;;;;;;16.72;56.94;100639.66;5027371;28;20223;-68
2022/05/04 07:38:22;;;;;;;14.13;9.13;;;;;;;16.84;57.04;100641.72;5028096;28;20209;-68
2022/05/04 07:43:35;;;;;;;19.43;8.87;;;;;;;17.09;56.73;100644.09;5027557;28;20593;-67
2022/05/04 07:46:07;;;;;;;19.17;8.83;;;;;;;17.23;55.95;100644.09;5029512;28;20213;-68
2022/05/04 07:48:36;;;;;;;10.17;8.23;;;;;;;17.34;55.70;100642.75;5028282;28;20622;-69
2022/05/04 07:51:04;;;;;;;12.30;7.90;;;;;;;17.46;55.52;100635.06;5027647;28;20224;-68
2022/05/04 07:53:32;;;;;;;18.83;9.23;;;;;;;17.53;55.04;100636.81;5028085;28;20220;-68
2022/05/04 07:56:00;;;;;;;16.37;9.30;;;;;;;17.68;54.58;100640.31;5025947;28;20574;-68
2022/05/04 07:58:28;;;;;;;12.77;8.97;;;;;;;17.73;54.98;100636.22;5027393;28;20211;-69
2022/05/04 08:06:33;;;;;;;13.60;10.27;;;;;;;17.87;54.39;100643.38;5026177;28;20299;-68
2022/05/04 08:09:02;;;;;;;17.00;9.13;;;;;;;17.91;54.76;100650.03;5027410;28;20204;-69
2022/05/04 08:11:30;;;;;;;11.17;8.90;;;;;;;18.01;54.03;100639.81;5027221;28;20233;-68
2022/05/04 08:13:58;;;;;;;17.13;8.97;;;;;;;18.12;54.23;100641.16;5027457;28;20737;-68
2022/05/04 08:16:27;;;;;;;18.03;10.00;;;;;;;18.16;53.44;100643.25;5022426;28;20670;-68
2022/05/04 08:18:57;;;;;;;12.90;8.67;;;;;;;18.15;53.50;100646.13;5020247;28;20557;-68
2022/05/04 08:21:25;;;;;;;13.40;9.47;;;;;;;18.26;53.49;100649.13;5026040;28;20205;-69
2022/05/04 08:23:52;;;;;;;15.87;9.63;;;;;;;18.34;53.74;100646.31;5022496;28;20204;-68
2022/05/04 08:26:23;;;;;;;14.97;8.87;;;;;;;18.50;52.95;100638.97;5024825;28;20229;-68
2022/05/04 08:28:52;;;;;;;12.87;10.00;;;;;;;18.56;53.56;100643.59;5018170;28;20709;-69
2022/05/04 08:31:21;;;;;;;16.03;9.53;;;;;;;18.71;53.38;100647.03;5023038;28;20221;-68
2022/05/04 08:33:52;;;;;;;14.73;9.93;;;;;;;18.76;53.64;100639.19;5023368;28;20205;-67
2022/05/04 08:36:21;;;;;;;14.47;9.43;;;;;;;18.80;53.13;100640.47;5023345;28;20215;-67
2022/05/04 08:38:49;;;;;;;15.60;9.47;;;;;;;18.75;52.61;100632.97;5021857;28;20705;-68
2022/05/04 08:41:17;;;;;;;16.00;10.33;;;;;;;18.72;52.91;100636.09;5023559;28;20300;-70
2022/05/04 08:43:49;;;;;;;14.87;9.67;;;;;;;18.64;52.53;100638.94;5025548;28;20255;-70
2022/05/04 08:46:17;;;;;;;11.87;8.50;;;;;;;18.61;53.63;100646.53;5023718;28;20292;-69
2022/05/04 08:48:45;;;;;;;16.50;8.87;;;;;;;18.64;53.28;100638.09;5021565;28;20270;-69
2022/05/04 08:51:13;;;;;;;12.67;9.90;;;;;;;18.78;53.85;100637.97;5022936;28;20966;-69
2022/05/04 08:53:46;;;;;;;18.70;10.00;;;;;;;19.00;52.64;100640.56;5024321;28;20299;-69
2022/05/04 08:56:14;;;;;;;15.70;10.03;;;;;;;19.00;52.25;100638.69;5022831;28;20232;-69
2022/05/04 08:58:42;;;;;;;12.13;8.70;;;;;;;19.02;52.47;100650.09;5021454;28;20666;-69
2022/05/04 09:01:09;;;;;;;13.07;10.13;;;;;;;19.05;53.03;100644.31;5022120;28;20208;-69
2022/05/04 09:03:38;;;;;;;12.97;10.13;;;;;;;19.03;52.64;100651.75;5022104;28;20209;-70
2022/05/04 09:06:06;;;;;;;17.57;10.47;;;;;;;18.96;52.94;100645.50;5025616;28;20213;-69
2022/05/04 09:09:03;;;;;;;18.77;10.43;;;;;;;18.86;53.47;100642.34;5023696;28;20209;-69
2022/05/04 09:11:32;;;;;;;16.87;10.33;;;;;;;18.90;53.22;100645.50;5021186;28;20348;-68
2022/05/04 09:14:01;;;;;;;16.10;10.53;;;;;;;18.87;52.85;100641.31;5022300;28;20352;-69
2022/05/04 09:16:30;;;;;;;15.30;10.13;;;;;;;18.86;53.55;100636.97;5024730;28;20221;-68
2022/05/04 09:19:00;;;;;;;13.43;9.93;;;;;;;18.92;53.99;100636.19;5023085;28;20344;-68
2022/05/04 09:21:28;;;;;;;14.97;9.87;;;;;;;19.01;52.83;100639.53;5021024;28;20215;-68
2022/05/04 09:23:57;;;;;;;17.07;10.07;;;;;;;18.95;53.40;100637.66;5020592;28;20594;-70
2022/05/04 09:26:25;;;;;;;16.90;11.17;;;;;;;18.96;53.21;100636.63;5023108;28;20274;-69
2022/05/04 09:28:58;;;;;;;13.60;10.17;;;;;;;18.98;52.33;100638.09;5022089;28;20567;-73
2022/05/04 09:31:27;;;;;;;13.30;9.80;;;;;;;18.97;52.57;100639.13;5020546;28;20236;-70
2022/05/04 09:33:58;;;;;;;12.70;10.20;;;;;;;18.95;52.09;100633.09;5021545;28;20303;-69
2022/05/04 09:36:34;;;;;;;13.70;9.67;;;;;;;19.01;52.80;100634.97;5020980;28;20667;-71
2022/05/04 09:44:55;;;;;;;14.90;10.23;;;;;;;19.45;51.26;100622.97;5022713;28;20212;-71
2022/05/04 09:47:23;;;;;;;13.43;10.43;;;;;;;19.57;51.05;100620.56;5022162;28;20323;-69
2022/05/04 09:50:03;;;;;;;17.73;10.67;;;;;;;19.65;51.04;100620.38;5023255;28;20331;-69
2022/05/04 09:52:41;;;;;;;14.93;9.97;;;;;;;19.73;51.97;100625.56;5022155;28;20263;-69
2022/05/04 09:55:19;;;;;;;15.27;10.43;;;;;;;19.86;51.47;100621.06;5021901;28;20303;-68
2022/05/04 09:57:48;;;;;;;18.00;10.83;;;;;;;19.99;51.03;100619.38;5024763;28;20226;-68
2022/05/04 10:00:19;;;;;;;14.97;10.10;;;;;;;20.07;49.89;100616.50;5023042;28;20255;-68
2022/05/04 10:02:49;;;;;;;13.27;10.40;;;;;;;20.24;49.57;100617.72;5023025;28;20208;-68
2022/05/04 10:05:17;;;;;;;13.13;9.37;;;;;;;20.44;49.36;100623.97;5017534;28;20309;-70
2022/05/04 10:07:47;;;;;;;13.27;10.10;;;;;;;20.50;50.35;100620.44;5016265;28;20303;-69
2022/05/04 10:10:15;;;;;;;17.17;10.57;;;;;;;20.50;49.81;100617.75;5018445;28;20728;-70
2022/05/04 10:12:45;;;;;;;14.40;11.00;;;;;;;20.54;48.99;100608.22;5019932;28;20224;-70
2022/05/04 10:15:14;;;;;;;14.23;10.67;;;;;;;20.62;49.39;100605.31;5019669;28;20220;-72
2022/05/04 10:17:47;;;;;;;15.20;10.83;;;;;;;20.76;50.00;100611.47;5019644;28;20211;-72
2022/05/04 10:20:19;;;;;;;13.07;10.90;;;;;;;20.94;49.09;100608.94;5017817;28;20698;-69
2022/05/04 10:22:53;;;;;;;17.37;11.03;;;;;;;21.04;48.55;100603.09;5019389;28;20242;-71
2022/05/04 10:25:21;;;;;;;13.17;10.97;;;;;;;21.10;47.93;100596.88;5018475;28;20640;-66
2022/05/04 10:27:52;;;;;;;16.80;10.43;;;;;;;21.15;48.57;100597.06;5022460;28;20208;-71
2022/05/04 10:30:46;;;;;;;14.47;10.57;;;;;;;21.30;48.45;100594.09;5017219;28;20319;-70
2022/05/04 10:33:15;;;;;;;13.43;9.20;;;;;;;21.37;48.37;100603.00;5020523;28;20237;-70
2022/05/04 10:35:44;;;;;;;19.10;11.03;;;;;;;21.40;47.16;100599.88;5021080;28;20604;-74
2022/05/04 10:38:15;;;;;;;13.77;10.47;;;;;;;21.33;47.47;100591.81;5020123;28;20305;-72
2022/05/04 10:40:54;;;;;;;208.20;22.77;;;;;;;21.23;47.21;100594.16;5020479;28;20205;-72
2022/05/04 10:43:37;;;;;;;30.90;11.87;;;;;;;21.12;48.09;100593.94;5020649;28;20204;-71
2022/05/04 10:46:10;;;;;;;20.83;10.60;;;;;;;21.01;48.99;100595.47;5021364;28;20212;-68
2022/05/04 10:48:43;;;;;;;16.67;10.70;;;;;;;21.15;48.02;100588.13;5016325;28;20356;-70
2022/05/04 10:51:18;;;;;;;13.23;9.37;;;;;;;21.42;48.05;100580.78;5026668;28;20222;-70
2022/05/04 10:53:48;;;;;;;15.20;10.90;;;;;;;21.65;46.99;100576.47;5027553;28;20657;-71
2022/05/04 10:56:18;;;;;;;13.03;10.33;;;;;;;21.84;46.51;100571.16;5024663;28;20675;-71
2022/05/04 10:58:54;;;;;;;14.30;10.30;;;;;;;22.07;46.17;100571.44;5027691;28;20212;-70
2022/05/04 11:01:23;;;;;;;12.37;9.73;;;;;;;22.22;46.37;100568.38;5024684;28;20215;-71
2022/05/04 11:04:22;;;;;;;18.05;10.52;;;;;;;22.35;46.29;100558.25;5025687;28;20553;-70
2022/05/04 11:06:55;;;;;;;17.42;11.45;;;;;;;22.46;46.49;100560.25;5024767;28;20232;-70
2022/05/04 11:09:25;;;;;;;13.60;10.82;;;;;;;22.53;46.35;100560.16;5027381;28;20635;-69
2022/05/04 11:11:54;;;;;;;12.38;10.93;;;;;;;22.65;46.05;100555.69;5029072;28;20712;-69
2022/05/04 11:14:24;;;;;;;15.70;12.13;;;;;;;22.74;45.01;100550.78;5027390;28;20219;-70
2022/05/04 11:16:53;;;;;;;17.55;11.05;;;;;;;22.93;45.23;100555.19;5025425;28;20215;-69
2022/05/04 11:19:24;;;;;;;17.70;11.38;;;;;;;23.03;44.46;100549.25;5028398;28;20285;-70
2022/05/04 11:21:51;;;;;;;15.73;11.20;;;;;;;23.27;43.52;100545.56;5028516;28;20299;-70
2022/05/04 11:24:33;;;;;;;13.00;11.55;;;;;;;23.32;43.54;100544.88;5025759;28;20308;-70
2022/05/04 11:27:01;;;;;;;15.15;10.88;;;;;;;23.39;43.51;100538.34;5027172;28;20215;-70
2022/05/04 11:29:30;;;;;;;16.75;11.52;;;;;;;23.57;42.40;100540.97;5026792;28;21105;-70
2022/05/04 11:32:01;;;;;;;15.07;10.88;;;;;;;23.75;42.07;100542.00;5026203;28;20235;-69
2022/05/04 11:34:31;;;;;;;16.50;11.40;;;;;;;23.65;42.67;100531.72;5028918;28;20877;-69
2022/05/04 11:37:05;;;;;;;15.05;10.35;;;;;;;23.73;41.92;100533.28;5025810;28;20207;-69
2022/05/04 11:39:34;;;;;;;11.23;9.48;;;;;;;23.77;42.77;100539.84;5024381;28;20328;-70
2022/05/04 11:42:03;;;;;;;13.57;10.50;;;;;;;23.79;42.17;100532.31;5026308;28;20215;-71
2022/05/04 11:44:33;;;;;;;15.25;9.93;;;;;;;23.67;42.40;100535.00;5022882;28;20213;-71
2022/05/04 11:47:09;;;;;;;12.68;10.70;;;;;;;23.40;42.25;100526.44;5025698;28;20219;-70
2022/05/04 11:49:38;;;;;;;15.15;9.73;;;;;;;23.17;42.54;100523.66;5023851;28;20326;-72
2022/05/04 11:52:06;;;;;;;13.18;8.27;;;;;;;22.96;43.48;100534.94;5026111;28;20247;-71